createdAt,value
2019-02-26T02:55:37.909Z,2.43
2019-02-26T02:58:17.315Z,3.63
2019-02-26T03:00:46.113Z,3.37
2019-02-26T03:53:02.207Z,2.67
2019-02-26T03:55:36.196Z,2.17
2019-02-26T03:58:05.032Z,3.57
2019-02-26T04:00:34.844Z,2.03
2019-02-26T04:03:09.220Z,2.47
2019-02-26T04:05:38.413Z,1.87
2019-02-26T04:08:13.490Z,2.87
2019-02-26T04:10:47.435Z,3.63
2019-02-26T04:13:15.906Z,2.20
2019-02-26T04:15:44.773Z,2.07
2019-02-26T04:18:19.646Z,2.33
2019-02-26T04:20:48.617Z,2.70
2019-02-26T04:23:20.020Z,2.73
2019-02-26T04:26:15.887Z,2.60
2019-02-26T04:28:47.648Z,1.63
2019-02-26T04:31:57.725Z,2.10
2019-02-26T04:34:43.218Z,2.17
2019-02-26T04:37:53.007Z,2.20
2019-02-26T04:41:22.041Z,2.33
2019-02-26T04:44:14.156Z,2.33
2019-02-26T04:47:24.190Z,2.37
2019-02-26T04:49:54.239Z,2.23
2019-02-26T04:52:22.637Z,2.27
2019-02-26T04:54:55.663Z,2.13
2019-02-26T04:57:27.413Z,2.10
2019-02-26T04:59:59.003Z,3.20
2019-02-26T05:02:26.999Z,3.03
2019-02-26T05:04:56.226Z,2.00
2019-02-26T05:07:25.127Z,2.03
2019-02-26T05:09:58.802Z,2.17
2019-02-26T05:12:28.704Z,2.87
2019-02-26T05:15:01.042Z,2.07
2019-02-26T05:17:32.974Z,2.63
2019-02-26T05:20:00.444Z,3.37
2019-02-26T05:22:31.006Z,3.07
2019-02-26T05:25:04.671Z,2.53
2019-02-26T05:27:33.403Z,2.00
2019-02-26T05:30:09.730Z,2.63
2019-02-26T05:32:41.715Z,3.57
2019-02-26T05:35:19.641Z,3.10
2019-02-26T05:37:55.484Z,2.87
2019-02-26T05:40:23.874Z,2.43
2019-02-26T05:42:56.848Z,5.57
2019-02-26T05:45:28.821Z,4.47
2019-02-26T05:47:58.946Z,4.97
2019-02-26T05:50:34.647Z,2.80
2019-02-26T05:53:10.489Z,2.03
2019-02-26T05:55:38.659Z,2.37
2019-02-26T05:58:09.969Z,1.90
2019-02-26T06:00:41.284Z,1.90
2019-02-26T06:03:12.844Z,3.57
2019-02-26T06:05:45.577Z,2.00
2019-02-26T06:08:15.117Z,2.67
2019-02-26T06:10:47.634Z,2.00
2019-02-26T06:13:16.755Z,2.20
2019-02-26T06:15:51.270Z,2.00
2019-02-26T06:18:20.944Z,2.30
2019-02-26T06:20:58.448Z,3.93
2019-02-26T06:23:28.163Z,2.73
2019-02-26T06:26:02.313Z,2.00
2019-02-26T06:28:35.557Z,2.73
2019-02-26T06:31:01.217Z,2.23
2019-02-26T06:33:34.148Z,3.50
2019-02-26T06:36:01.653Z,2.17
2019-02-26T12:28:20.425Z,8.07
2019-02-26T12:30:49.244Z,6.30
2019-02-26T12:33:18.146Z,6.60
2019-02-26T12:35:50.027Z,6.37
2019-02-26T12:38:27.967Z,9.37
2019-02-26T12:40:56.825Z,5.97
2019-02-26T12:43:27.115Z,6.77
2019-02-26T12:46:01.394Z,6.13
2019-02-26T12:48:37.077Z,9.20
2019-02-26T12:51:07.710Z,7.10
2019-02-26T12:53:49.059Z,7.33
2019-02-26T12:56:20.829Z,7.10
2019-02-26T12:58:54.576Z,6.05
2019-02-26T13:01:25.414Z,6.58
2019-02-26T13:03:57.019Z,7.35
2019-02-26T13:06:29.080Z,5.50
2019-02-26T13:08:58.193Z,6.75
2019-02-26T13:11:27.201Z,5.85
2019-02-26T13:13:56.157Z,5.78
2019-02-26T13:16:25.085Z,6.72
2019-02-26T13:18:58.592Z,7.10
2019-02-26T13:21:24.731Z,10.50
2019-02-26T13:23:58.758Z,10.90
2019-02-26T13:26:34.947Z,7.62
2019-02-26T13:29:00.820Z,8.80
2019-02-26T13:31:34.051Z,6.95
2019-02-26T13:34:00.379Z,10.08
2019-02-26T13:36:29.707Z,6.55
2019-02-26T13:39:00.329Z,7.20
2019-02-26T13:41:31.281Z,8.55
2019-02-26T13:44:00.917Z,7.20
2019-02-26T13:46:30.303Z,7.37
2019-02-26T13:48:59.210Z,9.20
2019-02-26T13:51:29.463Z,9.43
2019-02-26T13:54:01.095Z,7.62
2019-02-26T13:56:29.976Z,7.72
2019-02-26T13:58:58.858Z,7.95
2019-02-26T14:01:30.943Z,9.10
2019-02-26T14:03:59.808Z,7.33
2019-02-26T14:06:28.837Z,8.35
2019-02-26T14:08:57.738Z,8.05
2019-02-26T14:11:26.861Z,7.58
2019-02-26T14:13:55.775Z,22.60
2019-02-26T14:16:24.670Z,9.33
2019-02-26T14:18:56.553Z,7.25
2019-02-26T14:21:25.652Z,7.87
2019-02-26T14:23:54.472Z,8.43
2019-02-26T14:26:26.174Z,9.78
2019-02-26T14:28:55.002Z,10.18
2019-02-26T14:31:24.153Z,8.20
2019-02-26T14:33:53.411Z,6.95
2019-02-26T14:36:22.414Z,7.30
2019-02-26T14:38:54.389Z,8.08
2019-02-26T14:41:23.273Z,7.72
2019-02-26T14:43:52.327Z,8.05
2019-02-26T14:46:21.197Z,7.47
2019-02-26T14:48:50.097Z,7.70
2019-02-26T14:51:18.892Z,6.35
2019-02-26T14:53:50.936Z,6.85
2019-02-26T14:56:19.748Z,8.33
2019-02-26T14:58:51.545Z,7.53
2019-02-26T15:01:26.469Z,7.33
2019-02-26T15:03:55.445Z,8.10
2019-02-26T15:06:25.809Z,8.00
2019-02-26T15:08:54.596Z,6.80
2019-02-26T15:11:23.441Z,8.43
2019-02-26T15:14:02.555Z,8.30
2019-02-26T15:16:34.701Z,9.07
2019-02-26T15:19:03.578Z,7.63
2019-02-26T15:21:32.584Z,7.67
2019-02-26T15:24:01.478Z,7.10
2019-02-26T15:26:36.625Z,8.60
2019-02-26T15:29:05.446Z,7.53
2019-02-26T15:31:37.257Z,8.13
2019-02-26T15:34:06.158Z,6.63
2019-02-26T15:36:35.164Z,5.80
2019-02-26T15:39:04.704Z,6.60
2019-02-26T15:41:36.823Z,7.87
2019-02-26T15:44:05.745Z,6.50
2019-02-26T15:46:37.733Z,6.90
2019-02-26T15:49:07.708Z,7.03
2019-02-26T15:51:37.027Z,7.00
2019-02-26T15:54:11.835Z,7.53
2019-02-26T15:56:40.667Z,7.27
2019-02-26T15:59:09.779Z,7.07
2019-02-26T16:01:38.803Z,6.23
2019-02-26T16:04:10.772Z,6.10
2019-02-26T16:06:45.728Z,7.80
2019-02-26T16:09:20.785Z,10.97
2019-02-26T16:11:52.378Z,8.00
2019-02-26T16:14:21.508Z,9.13
2019-02-26T16:16:50.612Z,7.43
2019-02-26T16:19:22.731Z,7.03
2019-02-26T16:21:54.313Z,7.30
2019-02-26T16:24:23.145Z,4.90
2019-02-26T16:26:55.122Z,6.80
2019-02-26T16:29:23.952Z,5.00
2019-02-26T22:32:49.885Z,4.57
2019-02-26T22:35:18.759Z,4.40
2019-02-26T22:37:50.738Z,3.93
2019-02-26T22:40:19.617Z,2.83
2019-02-26T22:42:48.583Z,3.23
2019-02-26T22:45:17.805Z,5.00
2019-02-26T22:47:52.798Z,3.80
2019-02-26T22:50:21.684Z,2.67
2019-02-26T22:52:50.587Z,2.73
2019-02-26T22:55:22.855Z,5.00
2019-02-26T22:57:51.749Z,2.97
2019-02-26T23:01:00.242Z,2.43
2019-02-26T23:03:29.238Z,3.80
2019-02-26T23:05:59.546Z,2.20
2019-02-26T23:08:32.672Z,2.93
2019-02-26T23:11:01.824Z,2.57
2019-02-26T23:13:34.439Z,4.13
2019-02-26T23:16:03.878Z,3.43
2019-02-26T23:18:33.041Z,5.77
2019-02-26T23:21:01.997Z,3.30
2019-02-26T23:23:31.064Z,4.20
2019-02-26T23:26:00.261Z,4.07
2019-02-26T23:28:29.233Z,3.77
2019-02-26T23:30:59.864Z,5.13
2019-02-26T23:33:28.781Z,3.00
2019-02-26T23:35:57.670Z,3.90
2019-02-26T23:38:27.521Z,2.63
2019-02-26T23:41:00.359Z,3.57
2019-02-26T23:43:30.106Z,2.80
2019-02-26T23:46:01.861Z,2.50
2019-02-26T23:48:31.117Z,2.97
2019-02-26T23:51:00.366Z,2.43
2019-02-26T23:53:29.334Z,3.13
2019-02-26T23:55:58.543Z,3.27
2019-02-26T23:58:30.733Z,3.50
